Time;durP1;ratioP1;P1;durP2;ratioP2;P2;SDS_P1;SDS_P2;PMS_P1;PMS_P2;Temp;Humidity;BMP_temperature;BMP_pressure;BME280_temperature;BME280_humidity;BME280_pressure;Samples;Min_cycle;Max_cycle;Signal;HPM_P1;HPM_P2
2021/06/23 00:00:19;;;;;;;5.95;5.20;;;22.90;59.80;;;;;;4910436;29;20192;-81
2021/06/23 00:02:47;;;;;;;6.63;5.80;;;22.90;59.70;;;;;;4943512;29;20158;-83
2021/06/23 00:05:14;;;;;;;6.28;5.63;;;22.90;59.70;;;;;;4909480;29;20198;-81
2021/06/23 00:07:44;;;;;;;6.88;5.93;;;22.90;59.70;;;;;;4909229;29;20239;-81
2021/06/23 00:10:13;;;;;;;5.80;5.20;;;22.90;60.00;;;;;;4925662;29;20182;-81
2021/06/23 00:12:46;;;;;;;6.25;5.60;;;22.80;59.80;;;;;;4925655;29;20637;-81
2021/06/23 00:15:15;;;;;;;6.28;5.40;;;22.90;59.70;;;;;;4925471;29;20273;-81
2021/06/23 00:17:42;;;;;;;6.68;5.25;;;22.90;59.70;;;;;;4925346;29;20249;-81
2021/06/23 00:20:09;;;;;;;6.40;5.38;;;22.90;59.60;;;;;;4941593;29;20193;-81
2021/06/23 00:22:39;;;;;;;6.70;5.30;;;22.90;59.60;;;;;;4925048;29;20218;-83
2021/06/23 00:25:09;;;;;;;7.32;5.15;;;22.90;59.50;;;;;;4925097;29;20226;-82
2021/06/23 00:27:35;;;;;;;7.38;5.90;;;22.90;59.50;;;;;;4909162;29;20238;-83
2021/06/23 00:30:02;;;;;;;6.38;5.65;;;22.90;59.60;;;;;;4942494;29;20166;-81
2021/06/23 00:32:29;;;;;;;7.03;5.57;;;22.90;59.70;;;;;;4908948;29;20659;-83
2021/06/23 00:34:56;;;;;;;6.97;5.28;;;22.90;59.70;;;;;;4924496;29;20664;-83
2021/06/23 00:37:23;;;;;;;7.22;5.85;;;22.90;59.70;;;;;;4908715;29;20190;-83
2021/06/23 00:39:53;;;;;;;6.20;5.47;;;22.90;59.60;;;;;;4924693;29;20203;-81
2021/06/23 00:42:23;;;;;;;5.78;4.72;;;22.90;59.50;;;;;;4909189;29;20189;-82
2021/06/23 00:44:53;;;;;;;6.50;5.60;;;22.90;59.60;;;;;;4924531;29;20278;-83
2021/06/23 00:47:20;;;;;;;6.70;5.93;;;22.90;59.50;;;;;;4909254;29;20241;-81
2021/06/23 00:49:46;;;;;;;7.10;5.30;;;22.90;59.70;;;;;;4940996;29;20154;-83
2021/06/23 00:52:12;;;;;;;5.65;5.05;;;22.80;60.00;;;;;;4942985;29;20158;-82
2021/06/23 00:54:46;;;;;;;6.72;5.50;;;22.80;59.90;;;;;;4942648;29;20181;-82
2021/06/23 00:57:12;;;;;;;6.68;5.70;;;22.80;59.80;;;;;;4941368;29;20170;-81
2021/06/23 00:59:41;;;;;;;6.22;5.43;;;22.80;59.90;;;;;;4941350;29;20170;-81
2021/06/23 01:02:07;;;;;;;7.05;5.20;;;22.90;59.70;;;;;;4924708;29;20185;-82
2021/06/23 01:04:33;;;;;;;7.70;5.90;;;22.90;59.60;;;;;;4939393;29;20305;-81
2021/06/23 01:07:00;;;;;;;6.75;5.53;;;22.90;59.60;;;;;;4942429;29;20194;-81
2021/06/23 01:09:33;;;;;;;6.88;5.32;;;22.90;59.60;;;;;;4942151;29;20166;-81
2021/06/23 01:12:27;;;;;;;7.63;5.43;;;22.90;59.40;;;;;;4924190;29;20206;-81
2021/06/23 01:14:59;;;;;;;10.68;5.57;;;22.90;59.40;;;;;;4941566;29;20166;-81
2021/06/23 01:17:31;;;;;;;5.32;4.78;;;22.90;59.40;;;;;;4924700;29;20658;-82
2021/06/23 01:20:08;;;;;;;5.97;5.32;;;22.90;59.40;;;;;;4909208;29;20217;-81
2021/06/23 01:22:34;;;;;;;5.72;5.00;;;22.90;59.40;;;;;;4924173;29;20276;-82
2021/06/23 01:25:00;;;;;;;7.68;5.60;;;22.80;59.40;;;;;;4941021;29;20167;-82
2021/06/23 01:27:26;;;;;;;8.30;5.20;;;22.90;59.50;;;;;;4940440;29;20650;-84
2021/06/23 01:29:52;;;;;;;6.75;5.43;;;22.90;59.40;;;;;;4924142;29;20229;-82
2021/06/23 01:32:18;;;;;;;6.25;5.03;;;22.90;59.50;;;;;;4940868;29;20249;-81
2021/06/23 01:34:50;;;;;;;5.97;5.07;;;22.90;59.40;;;;;;4941331;29;20200;-82
2021/06/23 01:37:16;;;;;;;6.45;5.03;;;22.90;59.50;;;;;;4892719;29;20542;-83
2021/06/23 01:39:42;;;;;;;6.93;5.68;;;22.90;59.60;;;;;;4941697;29;20159;-83
2021/06/23 01:42:08;;;;;;;6.13;5.50;;;22.90;59.50;;;;;;4940459;29;20170;-82
2021/06/23 01:44:38;;;;;;;6.55;5.82;;;22.90;59.60;;;;;;4941863;29;20171;-84
2021/06/23 01:47:04;;;;;;;7.15;5.95;;;22.90;59.60;;;;;;4907870;29;20222;-83
2021/06/23 01:49:30;;;;;;;5.97;5.32;;;22.90;59.60;;;;;;4940325;29;20213;-83
2021/06/23 01:51:56;;;;;;;6.72;5.57;;;22.90;59.50;;;;;;4940548;29;20221;-83
2021/06/23 01:54:22;;;;;;;5.88;5.28;;;22.90;59.60;;;;;;4941541;29;20169;-81
2021/06/23 01:56:52;;;;;;;6.65;4.85;;;22.90;59.80;;;;;;4939599;29;20634;-82
2021/06/23 01:59:18;;;;;;;6.75;5.60;;;22.80;59.70;;;;;;4907112;29;20642;-81
2021/06/23 02:02:21;;;;;;;6.53;5.18;;;22.80;59.60;;;;;;4939144;29;20185;-82
2021/06/23 02:05:06;;;;;;;5.63;5.00;;;22.80;59.60;;;;;;4941868;29;20622;-81
2021/06/23 02:08:00;;;;;;;5.60;5.00;;;22.80;59.60;;;;;;4939149;29;20197;-81
2021/06/23 02:10:56;;;;;;;7.03;5.25;;;22.80;59.60;;;;;;4926323;29;20224;-81
2021/06/23 02:13:56;;;;;;;6.57;5.32;;;22.80;59.60;;;;;;4924807;29;20256;-82
2021/06/23 02:16:24;;;;;;;5.63;5.03;;;22.80;60.00;;;;;;4911832;29;20701;-81
2021/06/23 02:18:54;;;;;;;5.90;4.65;;;22.80;59.70;;;;;;4940819;29;20269;-81
2021/06/23 02:21:28;;;;;;;5.53;4.85;;;22.80;59.90;;;;;;4923020;29;20553;-82
2021/06/23 02:23:54;;;;;;;6.07;5.40;;;22.80;60.10;;;;;;4923183;29;20191;-81
2021/06/23 02:26:21;;;;;;;6.30;5.28;;;22.80;59.90;;;;;;4940548;29;20162;-81
2021/06/23 02:28:52;;;;;;;6.30;5.68;;;22.80;59.80;;;;;;4939035;29;20257;-82
2021/06/23 02:31:18;;;;;;;6.72;5.70;;;22.80;59.90;;;;;;4922688;29;20190;-82
2021/06/23 02:33:44;;;;;;;7.25;5.70;;;22.80;59.90;;;;;;4940738;29;20673;-81
2021/06/23 02:36:14;;;;;;;6.25;5.10;;;22.80;59.90;;;;;;4940558;29;20162;-82
2021/06/23 02:38:41;;;;;;;6.13;5.53;;;22.80;59.80;;;;;;4907254;29;20245;-82
2021/06/23 02:41:08;;;;;;;6.13;5.40;;;22.80;59.70;;;;;;4939402;29;20155;-82
2021/06/23 02:43:34;;;;;;;5.97;5.18;;;22.80;59.90;;;;;;4940814;29;20566;-81
2021/06/23 02:46:02;;;;;;;6.10;5.50;;;22.80;59.80;;;;;;4939545;29;20233;-81
2021/06/23 02:48:30;;;;;;;5.82;4.80;;;22.80;59.80;;;;;;4922377;29;20218;-83
2021/06/23 02:51:02;;;;;;;5.78;4.88;;;22.80;59.70;;;;;;4922182;29;20313;-81
2021/06/23 02:53:30;;;;;;;6.55;5.50;;;22.80;59.70;;;;;;4907058;29;20704;-83
2021/06/23 02:55:57;;;;;;;6.22;5.63;;;22.80;59.80;;;;;;4906696;29;20190;-82
2021/06/23 02:58:25;;;;;;;5.63;5.05;;;22.80;59.70;;;;;;4891288;29;20229;-80
2021/06/23 03:00:52;;;;;;;5.93;5.03;;;22.80;59.80;;;;;;4922349;29;20185;-81
2021/06/23 03:03:20;;;;;;;6.53;5.22;;;22.80;59.70;;;;;;4906677;29;20194;-82
2021/06/23 03:05:47;;;;;;;6.82;5.20;;;22.80;59.80;;;;;;4922250;29;20185;-82
2021/06/23 03:08:15;;;;;;;6.25;5.40;;;22.80;59.80;;;;;;4922592;29;20246;-81
2021/06/23 03:10:42;;;;;;;6.60;5.25;;;22.80;59.70;;;;;;4922552;29;20195;-81
2021/06/23 03:13:09;;;;;;;5.90;5.13;;;22.80;59.70;;;;;;4922055;29;20287;-83
2021/06/23 03:15:35;;;;;;;5.75;5.15;;;22.80;59.70;;;;;;4922145;29;20261;-81
2021/06/23 03:18:02;;;;;;;6.25;5.30;;;22.80;59.90;;;;;;4938750;29;20173;-81
2021/06/23 03:20:33;;;;;;;7.60;5.47;;;22.80;59.90;;;;;;4922042;29;20245;-81
2021/06/23 03:23:00;;;;;;;6.30;5.20;;;22.80;60.00;;;;;;4922198;29;20194;-82
2021/06/23 03:25:27;;;;;;;7.03;5.60;;;22.70;59.70;;;;;;4921947;29;20315;-82
2021/06/23 03:27:53;;;;;;;6.45;5.32;;;22.70;59.80;;;;;;4922473;29;20233;-81
2021/06/23 03:30:21;;;;;;;5.85;5.07;;;22.70;59.80;;;;;;4938433;29;20186;-84
2021/06/23 03:32:51;;;;;;;6.00;5.18;;;22.80;59.80;;;;;;4938105;29;20154;-81
2021/06/23 03:35:20;;;;;;;6.80;5.45;;;22.80;59.70;;;;;;4922538;29;20193;-81
2021/06/23 03:37:49;;;;;;;6.57;5.50;;;22.70;59.80;;;;;;4922793;29;20637;-82
2021/06/23 03:40:16;;;;;;;6.50;5.80;;;22.80;59.80;;;;;;4906634;29;20190;-82
2021/06/23 03:42:46;;;;;;;6.88;5.38;;;22.80;59.80;;;;;;4940127;29;20174;-81
2021/06/23 03:45:13;;;;;;;6.55;5.40;;;22.70;59.80;;;;;;4910777;29;20194;-82
2021/06/23 03:47:42;;;;;;;5.80;5.18;;;22.70;59.80;;;;;;4907814;29;20221;-82
2021/06/23 03:50:14;;;;;;;6.45;5.78;;;22.70;59.80;;;;;;4939527;29;20162;-81
2021/06/23 03:52:43;;;;;;;6.47;4.80;;;22.70;59.70;;;;;;4907288;29;20589;-82
2021/06/23 03:55:19;;;;;;;5.85;5.25;;;22.70;59.70;;;;;;4923333;29;20197;-82
2021/06/23 03:57:51;;;;;;;7.65;5.65;;;22.60;59.80;;;;;;4924693;29;20260;-81
2021/06/23 04:00:20;;;;;;;6.07;5.38;;;22.70;59.80;;;;;;4907541;29;20225;-81
2021/06/23 04:02:49;;;;;;;6.07;5.20;;;22.60;59.70;;;;;;4906955;29;20522;-81
2021/06/23 04:05:19;;;;;;;5.57;4.93;;;22.70;59.80;;;;;;4907714;29;20241;-83
2021/06/23 04:07:49;;;;;;;5.60;5.00;;;22.70;59.80;;;;;;4923178;29;20264;-82
2021/06/23 04:10:17;;;;;;;5.60;5.05;;;22.70;59.90;;;;;;4907910;29;20664;-83
2021/06/23 04:12:45;;;;;;;7.13;4.85;;;22.70;59.70;;;;;;4923676;29;20189;-81
2021/06/23 04:15:14;;;;;;;6.18;5.22;;;22.60;60.30;;;;;;4923168;29;20190;-81
2021/06/23 04:17:42;;;;;;;5.90;5.13;;;22.60;60.40;;;;;;4907709;29;20194;-81
2021/06/23 04:20:11;;;;;;;5.57;4.93;;;22.50;60.80;;;;;;4892425;29;20190;-81
2021/06/23 04:22:38;;;;;;;5.55;4.95;;;22.40;60.90;;;;;;4906727;29;20341;-82
2021/06/23 04:25:08;;;;;;;5.07;4.57;;;22.40;61.10;;;;;;4906336;29;20182;-82
2021/06/23 04:27:33;;;;;;;5.68;4.40;;;22.20;61.10;;;;;;4924956;29;20230;-82
2021/06/23 04:30:04;;;;;;;5.22;4.20;;;22.20;61.20;;;;;;4942713;29;20161;-82
2021/06/23 04:32:29;;;;;;;5.20;4.43;;;22.20;60.90;;;;;;4926545;29;20194;-82
2021/06/23 04:35:01;;;;;;;5.10;3.60;;;22.20;60.90;;;;;;4942259;29;20579;-82
2021/06/23 04:37:28;;;;;;;4.47;4.07;;;22.20;60.70;;;;;;4943719;29;20205;-81
2021/06/23 04:39:54;;;;;;;5.13;4.63;;;22.20;60.90;;;;;;4944909;29;20161;-81
2021/06/23 04:42:21;;;;;;;4.47;4.00;;;22.20;60.80;;;;;;4946191;29;20166;-82
2021/06/23 04:44:47;;;;;;;4.95;4.45;;;22.20;60.70;;;;;;4946922;29;20167;-81
2021/06/23 04:47:17;;;;;;;4.65;4.15;;;22.20;60.80;;;;;;4948172;29;20189;-82
2021/06/23 04:49:47;;;;;;;4.38;3.78;;;22.10;61.00;;;;;;4929362;29;20649;-83
2021/06/23 04:52:16;;;;;;;4.20;3.80;;;22.10;61.00;;;;;;4929974;29;20186;-81
2021/06/23 04:54:41;;;;;;;4.10;3.70;;;22.10;60.80;;;;;;4914476;29;20245;-83
2021/06/23 04:57:10;;;;;;;4.38;3.80;;;22.20;60.70;;;;;;4946272;29;20178;-82
2021/06/23 04:59:38;;;;;;;4.53;4.13;;;22.10;60.60;;;;;;4897983;29;20194;-82
2021/06/23 05:02:06;;;;;;;4.65;4.13;;;22.20;60.80;;;;;;4913754;29;20194;-81
2021/06/23 05:04:34;;;;;;;4.75;4.25;;;22.10;60.50;;;;;;4928809;29;20186;-81
2021/06/23 05:07:02;;;;;;;5.50;4.93;;;22.10;60.90;;;;;;4945190;29;20158;-82
2021/06/23 05:09:30;;;;;;;4.63;4.00;;;22.10;61.20;;;;;;4946522;29;20165;-82
2021/06/23 05:12:00;;;;;;;4.22;3.83;;;22.00;61.30;;;;;;4945019;29;20245;-82
2021/06/23 05:14:29;;;;;;;4.35;3.90;;;22.00;61.70;;;;;;4928722;29;20209;-83
2021/06/23 05:16:59;;;;;;;4.47;4.00;;;22.00;61.70;;;;;;4927892;29;20241;-83
2021/06/23 05:19:28;;;;;;;5.22;3.75;;;21.90;62.50;;;;;;4896368;29;20186;-81
2021/06/23 05:21:53;;;;;;;4.25;3.85;;;22.00;61.60;;;;;;4925577;29;20651;-82
2021/06/23 05:24:21;;;;;;;4.47;4.00;;;22.00;61.40;;;;;;4944746;29;20233;-82
2021/06/23 05:26:53;;;;;;;4.65;4.13;;;22.10;61.50;;;;;;4927429;29;20178;-82
2021/06/23 05:29:21;;;;;;;4.32;3.80;;;22.00;61.90;;;;;;4895907;29;20209;-81
2021/06/23 05:31:49;;;;;;;4.38;3.95;;;21.90;61.90;;;;;;4926849;29;20194;-81
2021/06/23 05:34:16;;;;;;;4.18;3.78;;;21.90;61.70;;;;;;4911729;29;20197;-81
2021/06/23 05:36:42;;;;;;;4.95;4.28;;;22.00;61.80;;;;;;4926551;29;20190;-81
2021/06/23 05:39:07;;;;;;;5.13;4.13;;;22.00;61.80;;;;;;4943388;29;20237;-81
2021/06/23 05:41:34;;;;;;;4.85;4.22;;;21.90;61.80;;;;;;4943099;29;20158;-81
2021/06/23 05:44:02;;;;;;;4.22;3.75;;;21.90;62.00;;;;;;4927929;29;20174;-81
2021/06/23 05:46:27;;;;;;;4.47;4.05;;;21.90;61.90;;;;;;4942270;29;20218;-83
2021/06/23 05:48:56;;;;;;;4.60;4.10;;;21.90;61.80;;;;;;4941497;29;20250;-82
2021/06/23 05:51:24;;;;;;;5.10;4.07;;;21.90;62.00;;;;;;4923946;29;20166;-82
2021/06/23 05:53:50;;;;;;;4.90;4.38;;;21.90;62.20;;;;;;4941044;29;20163;-81
2021/06/23 05:56:18;;;;;;;6.00;4.10;;;21.90;63.10;;;;;;4940702;29;20241;-81
2021/06/23 05:58:45;;;;;;;5.93;4.13;;;21.90;62.30;;;;;;4940442;29;20186;-82
2021/06/23 06:01:10;;;;;;;5.90;4.03;;;22.00;62.00;;;;;;4939556;29;20204;-82
2021/06/23 06:03:38;;;;;;;5.85;3.92;;;22.00;61.80;;;;;;4939480;29;20170;-82
2021/06/23 06:06:04;;;;;;;4.90;4.28;;;22.00;61.90;;;;;;4939474;29;20154;-81
2021/06/23 06:08:29;;;;;;;5.93;4.05;;;22.00;61.80;;;;;;4938993;29;20202;-82
2021/06/23 06:10:55;;;;;;;4.68;4.18;;;22.00;61.80;;;;;;4939647;29;20158;-80
2021/06/23 06:13:21;;;;;;;5.07;4.57;;;22.00;61.80;;;;;;4940927;29;20261;-81
2021/06/23 06:15:47;;;;;;;4.80;4.25;;;21.90;62.30;;;;;;4936565;29;20162;-80
2021/06/23 06:18:12;;;;;;;5.13;4.13;;;21.80;62.80;;;;;;4934752;29;20154;-81
2021/06/23 06:20:38;;;;;;;4.90;4.00;;;21.60;62.90;;;;;;4935935;29;20200;-81
2021/06/23 06:23:04;;;;;;;5.13;4.40;;;21.70;63.00;;;;;;4936411;29;20162;-81
2021/06/23 06:25:30;;;;;;;4.82;3.95;;;21.60;63.10;;;;;;4935477;29;20198;-81
2021/06/23 06:27:55;;;;;;;5.30;4.13;;;21.70;63.00;;;;;;4936198;29;20701;-82
2021/06/23 06:30:23;;;;;;;4.90;4.20;;;21.70;62.90;;;;;;4935427;29;20166;-81
2021/06/23 06:32:51;;;;;;;5.00;4.05;;;21.70;63.20;;;;;;4903408;29;20194;-81
2021/06/23 06:35:18;;;;;;;5.50;4.18;;;21.50;63.20;;;;;;4935608;28;20289;-81
2021/06/23 06:37:45;;;;;;;4.80;4.15;;;21.60;63.40;;;;;;4918503;29;20205;-81
2021/06/23 06:40:12;;;;;;;6.10;4.25;;;21.60;63.40;;;;;;4936761;29;20268;-81
2021/06/23 06:42:39;;;;;;;4.97;4.30;;;21.60;63.40;;;;;;4919631;29;20193;-84
2021/06/23 06:45:07;;;;;;;5.07;4.40;;;21.60;63.60;;;;;;4938142;29;20186;-83
2021/06/23 06:47:33;;;;;;;4.72;4.22;;;21.50;63.50;;;;;;4952867;28;20194;-84
2021/06/23 06:49:59;;;;;;;5.35;4.50;;;21.60;63.60;;;;;;4920162;29;20221;-83
2021/06/23 06:52:26;;;;;;;4.93;4.10;;;21.60;63.70;;;;;;4935191;29;20161;-84
2021/06/23 06:54:51;;;;;;;4.40;4.00;;;21.50;63.80;;;;;;4920091;29;20172;-83
2021/06/23 06:57:17;;;;;;;5.03;4.25;;;21.50;63.80;;;;;;4936020;29;20614;-82
2021/06/23 06:59:43;;;;;;;4.40;3.92;;;21.50;63.90;;;;;;4936975;29;20163;-81
2021/06/23 07:02:09;;;;;;;5.50;3.97;;;21.50;63.80;;;;;;4936707;29;20166;-81
2021/06/23 07:04:36;;;;;;;4.20;3.70;;;21.60;63.90;;;;;;4936678;29;20195;-82
2021/06/23 07:07:02;;;;;;;5.10;4.10;;;21.60;63.90;;;;;;4938251;29;20166;-80
2021/06/23 07:09:28;;;;;;;5.25;4.03;;;21.50;63.90;;;;;;4937194;29;20165;-80
2021/06/23 07:11:54;;;;;;;5.25;4.18;;;21.60;64.00;;;;;;4940369;29;20241;-82
2021/06/23 07:14:21;;;;;;;4.88;3.85;;;21.60;64.10;;;;;;4940297;29;20181;-82
2021/06/23 07:16:47;;;;;;;4.68;3.88;;;21.60;64.50;;;;;;4937309;29;20181;-81
2021/06/23 07:19:14;;;;;;;4.65;3.90;;;21.60;64.50;;;;;;4938088;29;20206;-83
2021/06/23 07:21:41;;;;;;;3.90;3.50;;;21.60;64.50;;;;;;4936846;29;20213;-79
2021/06/23 07:24:17;;;;;;;5.15;3.85;;;21.60;64.30;;;;;;4939703;29;20166;-82
2021/06/23 07:26:45;;;;;;;4.15;3.75;;;21.70;64.30;;;;;;4905545;29;20189;-81
2021/06/23 07:29:11;;;;;;;4.13;3.67;;;21.70;64.20;;;;;;4937005;29;20276;-81
2021/06/23 07:31:47;;;;;;;4.28;3.78;;;21.60;64.30;;;;;;4938928;29;20261;-81
2021/06/23 07:34:21;;;;;;;3.80;3.40;;;21.70;64.30;;;;;;4921115;29;20190;-80
2021/06/23 07:36:51;;;;;;;4.50;3.63;;;21.70;64.30;;;;;;4937814;29;20161;-81
2021/06/23 07:39:17;;;;;;;4.43;3.85;;;21.70;64.30;;;;;;4921058;29;20599;-81
2021/06/23 07:41:46;;;;;;;4.78;3.55;;;21.80;64.20;;;;;;4938775;29;20185;-80
2021/06/23 07:44:14;;;;;;;5.53;3.67;;;21.80;63.90;;;;;;4938645;29;20606;-79
2021/06/23 07:46:50;;;;;;;4.22;3.83;;;22.00;63.60;;;;;;4937295;29;20169;-81
2021/06/23 07:49:17;;;;;;;4.47;3.72;;;22.00;63.10;;;;;;4905850;29;20649;-81
2021/06/23 07:51:51;;;;;;;5.35;4.28;;;22.10;62.90;;;;;;4939062;29;20150;-82
2021/06/23 07:54:30;;;;;;;4.82;3.70;;;22.10;63.10;;;;;;4936982;29;20169;-82
2021/06/23 08:10:09;;;;;;;4.60;4.03;;;22.40;62.10;;;;;;4937157;29;20169;-83
2021/06/23 08:15:16;;;;;;;6.30;4.32;;;22.30;62.30;;;;;;4941293;29;20158;-81
2021/06/23 08:17:46;;;;;;;5.85;4.25;;;22.40;62.30;;;;;;4940736;29;20561;-81
2021/06/23 08:20:12;;;;;;;4.10;3.67;;;22.40;62.30;;;;;;4923604;29;20676;-80
2021/06/23 08:22:38;;;;;;;5.32;3.70;;;22.40;62.20;;;;;;4941628;29;20225;-81
2021/06/23 08:25:05;;;;;;;4.63;4.05;;;22.40;62.00;;;;;;4941343;29;20158;-80
2021/06/23 08:27:30;;;;;;;5.57;3.95;;;22.40;62.10;;;;;;4941822;29;20217;-82
2021/06/23 08:29:56;;;;;;;5.22;4.20;;;22.50;62.10;;;;;;4925208;29;20166;-79
2021/06/23 08:32:22;;;;;;;5.22;4.20;;;22.50;62.10;;;;;;4940841;29;20165;-82
2021/06/23 08:34:48;;;;;;;4.38;3.80;;;22.60;61.70;;;;;;4943265;29;20533;-81
2021/06/23 08:37:18;;;;;;;4.35;3.80;;;22.60;61.80;;;;;;4942230;29;20163;-81
2021/06/23 08:39:44;;;;;;;4.68;4.25;;;22.60;61.60;;;;;;4924243;29;20243;-80
2021/06/23 08:42:10;;;;;;;4.38;3.92;;;22.70;61.50;;;;;;4941752;29;20222;-81
2021/06/23 08:44:36;;;;;;;5.45;3.97;;;22.70;61.20;;;;;;4939918;29;20182;-82
2021/06/23 08:47:03;;;;;;;5.78;4.05;;;22.70;61.40;;;;;;4938733;29;20163;-80
2021/06/23 08:49:29;;;;;;;5.43;4.20;;;22.70;61.50;;;;;;4938033;29;20159;-81
2021/06/23 08:51:56;;;;;;;7.10;4.13;;;22.70;61.50;;;;;;4937958;29;20157;-81
2021/06/23 08:54:22;;;;;;;4.10;3.63;;;22.80;61.40;;;;;;4937823;29;20209;-81
2021/06/23 08:56:49;;;;;;;5.40;3.95;;;22.80;61.40;;;;;;4938945;29;20159;-81
2021/06/23 08:59:14;;;;;;;5.47;4.13;;;22.80;61.20;;;;;;4937586;29;20162;-81
2021/06/23 09:01:42;;;;;;;4.18;3.50;;;22.80;61.10;;;;;;4939009;29;20193;-81
2021/06/23 09:04:09;;;;;;;4.32;3.78;;;22.80;61.10;;;;;;4939472;29;20249;-82
2021/06/23 09:06:45;;;;;;;6.22;3.90;;;22.90;61.10;;;;;;4938799;29;20158;-81
2021/06/23 09:09:37;;;;;;;4.50;3.80;;;22.90;61.10;;;;;;4938300;29;20221;-82
2021/06/23 09:12:05;;;;;;;5.07;4.05;;;22.80;61.20;;;;;;4939478;29;20182;-83
2021/06/23 09:14:32;;;;;;;5.20;4.20;;;22.80;61.30;;;;;;4938528;29;20205;-82
2021/06/23 09:17:15;;;;;;;4.65;4.10;;;22.80;61.40;;;;;;4937340;29;20579;-82
2021/06/23 09:19:46;;;;;;;9.02;4.53;;;22.90;61.00;;;;;;4937241;29;20634;-82
2021/06/23 09:22:31;;;;;;;5.65;4.10;;;22.90;61.20;;;;;;4938462;29;20162;-81
2021/06/23 09:24:58;;;;;;;6.28;4.68;;;22.80;61.20;;;;;;4939416;29;20241;-82
2021/06/23 09:27:26;;;;;;;5.10;4.28;;;22.80;61.40;;;;;;4937721;29;20238;-82
2021/06/23 09:29:52;;;;;;;7.45;3.83;;;22.80;61.50;;;;;;4937470;29;20161;-81
2021/06/23 09:32:19;;;;;;;6.18;4.20;;;22.90;61.30;;;;;;4936956;29;20170;-81
2021/06/23 09:34:47;;;;;;;4.95;4.20;;;22.90;61.00;;;;;;4937245;29;20154;-81
2021/06/23 09:37:25;;;;;;;4.65;4.00;;;23.00;60.90;;;;;;4938540;29;20182;-83
2021/06/23 09:40:03;;;;;;;5.03;3.92;;;22.90;61.10;;;;;;4937596;29;20209;-80
2021/06/23 09:42:32;;;;;;;4.57;3.90;;;22.90;61.00;;;;;;4938387;29;20531;-80
2021/06/23 09:45:06;;;;;;;4.95;3.88;;;23.00;61.00;;;;;;4937898;29;20158;-82
2021/06/23 09:47:35;;;;;;;4.97;4.05;;;22.90;61.00;;;;;;4920787;29;20608;-82
2021/06/23 09:50:03;;;;;;;4.80;4.22;;;23.00;60.90;;;;;;4936700;29;20624;-81
2021/06/23 09:52:28;;;;;;;4.80;4.30;;;23.10;61.00;;;;;;4936590;29;20166;-81
2021/06/23 09:54:55;;;;;;;4.60;4.20;;;23.10;60.90;;;;;;4937998;29;20237;-81
2021/06/23 09:57:21;;;;;;;4.85;3.97;;;23.10;60.70;;;;;;4937774;29;20201;-81
2021/06/23 09:59:49;;;;;;;7.60;4.57;;;23.10;60.60;;;;;;4938015;29;20506;-80
2021/06/23 10:02:26;;;;;;;4.57;4.00;;;23.20;60.60;;;;;;4937165;29;20245;-81
2021/06/23 10:04:52;;;;;;;5.57;4.38;;;23.20;60.50;;;;;;4936619;29;20177;-82
2021/06/23 10:07:35;;;;;;;4.60;4.00;;;23.20;60.60;;;;;;4938054;29;20201;-86
2021/06/23 10:10:04;;;;;;;4.28;3.85;;;23.10;60.70;;;;;;4922119;29;20177;-86
2021/06/23 10:12:30;;;;;;;7.30;3.90;;;23.10;60.90;;;;;;4936242;29;20165;-85
2021/06/23 10:14:56;;;;;;;5.75;4.20;;;23.10;60.70;;;;;;4952439;29;20173;-82
2021/06/23 10:17:26;;;;;;;5.40;4.10;;;23.10;60.80;;;;;;4938572;29;20653;-84
2021/06/23 10:19:52;;;;;;;4.53;3.97;;;23.10;60.90;;;;;;4936048;28;20333;-83
2021/06/23 10:22:21;;;;;;;4.57;4.00;;;23.10;60.90;;;;;;4921134;29;20640;-87
2021/06/23 10:24:48;;;;;;;6.47;3.80;;;23.10;60.70;;;;;;4937335;29;20190;-80
2021/06/23 10:27:14;;;;;;;4.47;4.00;;;23.00;61.00;;;;;;4920612;29;20213;-80
2021/06/23 10:29:40;;;;;;;5.40;3.95;;;23.10;61.40;;;;;;4905648;29;20189;-80
2021/06/23 10:32:07;;;;;;;5.03;4.28;;;23.10;62.10;;;;;;4922086;29;20241;-80
2021/06/23 10:34:33;;;;;;;5.47;4.00;;;23.10;61.70;;;;;;4936890;29;20189;-81
2021/06/23 10:36:59;;;;;;;5.57;4.20;;;23.10;61.90;;;;;;4920639;29;20170;-80
2021/06/23 10:39:32;;;;;;;8.23;3.72;;;23.10;61.80;;;;;;4937212;29;20186;-79
2021/06/23 10:42:02;;;;;;;5.70;3.97;;;23.10;61.00;;;;;;4922504;29;20244;-79
2021/06/23 10:44:32;;;;;;;6.60;4.43;;;23.20;61.40;;;;;;4906433;29;20642;-81
2021/06/23 10:47:00;;;;;;;6.85;3.92;;;23.20;61.50;;;;;;4923365;29;20158;-80
2021/06/23 10:49:46;;;;;;;10.57;4.40;;;23.10;61.40;;;;;;4906803;29;20253;-81
2021/06/23 10:52:31;;;;;;;11.43;4.20;;;23.10;61.20;;;;;;4938351;29;20173;-80
2021/06/23 10:54:59;;;;;;;8.80;4.45;;;23.30;61.10;;;;;;4938482;29;20230;-81
2021/06/23 10:57:30;;;;;;;8.77;4.57;;;23.20;61.20;;;;;;4938237;29;20166;-81
2021/06/23 10:59:58;;;;;;;9.23;4.32;;;23.20;61.00;;;;;;4922460;29;20170;-82
2021/06/23 11:02:37;;;;;;;14.50;4.70;;;23.10;61.20;;;;;;4939102;29;20537;-82
2021/06/23 11:05:07;;;;;;;13.65;4.63;;;23.20;61.20;;;;;;4921280;29;20225;-81
2021/06/23 11:07:55;;;;;;;10.90;4.03;;;23.20;61.20;;;;;;4937013;29;20193;-80
2021/06/23 11:10:28;;;;;;;11.00;4.40;;;23.20;61.40;;;;;;4936975;29;20150;-80
2021/06/23 11:12:59;;;;;;;7.90;3.88;;;23.20;61.20;;;;;;4935602;29;20182;-80
2021/06/23 11:15:36;;;;;;;6.95;3.83;;;23.20;61.20;;;;;;4887113;29;20193;-81
2021/06/23 11:18:17;;;;;;;12.30;4.13;;;23.20;61.20;;;;;;4918503;29;20181;-81
2021/06/23 11:20:46;;;;;;;8.77;4.32;;;23.30;60.80;;;;;;4937272;29;20158;-81
2021/06/23 11:23:42;;;;;;;7.15;4.18;;;23.20;61.30;;;;;;4906511;29;20186;-81
2021/06/23 11:26:50;;;;;;;5.85;4.15;;;23.30;61.00;;;;;;4922848;29;20661;-81
2021/06/23 11:29:24;;;;;;;5.03;3.85;;;23.10;61.10;;;;;;4927000;29;20717;-80
2021/06/23 11:31:54;;;;;;;4.80;3.80;;;23.10;62.00;;;;;;4906448;29;20208;-82
2021/06/23 11:34:43;;;;;;;5.95;3.70;;;23.10;62.70;;;;;;4906893;29;20214;-81
2021/06/23 11:37:13;;;;;;;7.82;3.97;;;23.00;62.90;;;;;;4939376;29;20181;-82
2021/06/23 11:39:40;;;;;;;4.63;3.50;;;23.00;63.40;;;;;;4905256;29;20186;-82
2021/06/23 11:42:08;;;;;;;6.20;3.45;;;22.90;64.40;;;;;;4920731;29;20257;-82
2021/06/23 11:44:38;;;;;;;5.10;3.70;;;22.90;64.20;;;;;;4908081;29;20185;-82
2021/06/23 11:47:05;;;;;;;4.22;3.83;;;22.90;64.70;;;;;;4906694;29;20246;-83
2021/06/23 11:49:31;;;;;;;5.80;3.83;;;22.80;65.00;;;;;;4922205;29;20182;-82
2021/06/23 11:52:04;;;;;;;6.72;3.80;;;22.80;65.30;;;;;;4940404;29;20602;-81
2021/06/23 11:54:29;;;;;;;4.95;3.78;;;22.80;65.40;;;;;;4941579;29;20169;-83
2021/06/23 11:56:55;;;;;;;5.68;3.70;;;22.70;65.70;;;;;;4924349;29;20162;-83
2021/06/23 11:59:22;;;;;;;4.47;3.25;;;22.70;66.00;;;;;;4941194;29;20224;-84
2021/06/23 12:01:47;;;;;;;5.63;3.35;;;22.70;66.40;;;;;;4940441;29;20623;-82
2021/06/23 12:04:16;;;;;;;3.90;3.50;;;22.60;66.60;;;;;;4941883;29;20198;-82
2021/06/23 12:06:45;;;;;;;4.40;3.67;;;22.60;66.90;;;;;;4923007;29;20189;-81
2021/06/23 12:09:15;;;;;;;5.85;3.70;;;22.60;67.20;;;;;;4909023;29;20658;-81
2021/06/23 12:11:44;;;;;;;4.50;3.50;;;22.50;67.40;;;;;;4925956;29;20261;-82
2021/06/23 12:14:12;;;;;;;9.82;4.22;;;22.50;67.70;;;;;;4908658;29;20189;-82
2021/06/23 12:16:41;;;;;;;4.22;3.45;;;22.50;67.90;;;;;;4908069;29;20189;-82
2021/06/23 12:19:10;;;;;;;3.70;3.40;;;22.50;68.30;;;;;;4911309;29;20260;-81
2021/06/23 12:21:39;;;;;;;5.63;3.90;;;22.40;68.50;;;;;;4925309;29;20207;-81
2021/06/23 12:24:07;;;;;;;7.05;3.63;;;22.50;68.80;;;;;;4908138;29;20192;-82
2021/06/23 12:26:36;;;;;;;4.10;3.70;;;22.50;68.90;;;;;;4923311;29;20189;-81
2021/06/23 12:29:05;;;;;;;5.07;3.72;;;22.40;69.30;;;;;;4923427;29;20237;-82
2021/06/23 12:31:34;;;;;;;5.38;3.90;;;22.40;69.20;;;;;;4907283;29;20277;-82
2021/06/23 12:34:08;;;;;;;5.88;4.05;;;22.40;69.40;;;;;;4907452;29;20347;-81
2021/06/23 12:36:36;;;;;;;5.88;3.67;;;22.40;69.10;;;;;;4908700;29;20684;-82
2021/06/23 12:39:04;;;;;;;5.65;3.80;;;22.40;69.70;;;;;;4906461;29;20240;-82
2021/06/23 12:41:34;;;;;;;4.93;3.70;;;22.40;70.00;;;;;;4907129;29;20229;-82
2021/06/23 12:44:02;;;;;;;4.10;3.70;;;22.30;69.80;;;;;;4906479;29;20193;-82
2021/06/23 12:46:30;;;;;;;4.57;3.60;;;22.40;70.00;;;;;;4922660;29;20553;-82
2021/06/23 12:49:00;;;;;;;5.55;3.60;;;22.40;70.10;;;;;;4907126;29;20222;-82
2021/06/23 12:51:26;;;;;;;4.30;3.90;;;22.40;70.20;;;;;;4906221;29;20208;-82
2021/06/23 12:53:53;;;;;;;4.75;3.60;;;22.40;70.20;;;;;;4938280;29;20245;-82
2021/06/23 12:56:21;;;;;;;5.65;4.22;;;22.40;70.10;;;;;;4905891;29;20190;-82
2021/06/23 12:58:51;;;;;;;6.15;3.70;;;22.40;70.30;;;;;;4923455;29;20192;-82
2021/06/23 13:01:18;;;;;;;4.10;3.70;;;22.40;70.30;;;;;;4907886;29;20186;-82
2021/06/23 13:03:44;;;;;;;6.53;3.88;;;22.40;70.50;;;;;;4907153;29;20245;-82
2021/06/23 13:06:12;;;;;;;5.05;3.97;;;22.40;70.30;;;;;;4939934;29;20166;-81
2021/06/23 13:08:40;;;;;;;4.15;3.42;;;22.40;70.40;;;;;;4906868;29;20221;-83
2021/06/23 13:11:16;;;;;;;4.15;3.72;;;22.40;70.60;;;;;;4913456;29;20190;-82